Time;durP1;ratioP1;P1;durP2;ratioP2;P2;SDS_P1;SDS_P2;PMS_P1;PMS_P2;Temp;Humidity;BMP_temperature;BMP_pressure;BME280_temperature;BME280_humidity;BME280_pressure;Samples;Min_cycle;Max_cycle;Signal;HPM_P1;HPM_P2
2021/09/27 00:01:40;;;;;;;10.02;5.93;;;16.10;95.20;;;;;;5073379;28;20385;-73
2021/09/27 00:04:07;;;;;;;7.70;4.93;;;16.10;95.10;;;;;;5073959;28;20048;-71
2021/09/27 00:06:34;;;;;;;7.05;5.05;;;16.20;95.10;;;;;;5082145;28;20040;-71
2021/09/27 00:09:01;;;;;;;7.63;5.38;;;16.20;95.10;;;;;;5057138;28;20147;-70
2021/09/27 00:11:28;;;;;;;10.07;4.95;;;16.20;95.00;;;;;;5057156;28;20151;-71
2021/09/27 00:13:57;;;;;;;8.05;5.32;;;16.20;95.00;;;;;;5087956;28;20101;-72
2021/09/27 00:16:24;;;;;;;9.32;5.75;;;16.20;95.00;;;;;;5088058;28;20048;-71
2021/09/27 00:18:51;;;;;;;6.82;5.05;;;16.30;95.00;;;;;;5073086;28;20158;-71
2021/09/27 00:21:24;;;;;;;12.38;6.15;;;16.30;94.90;;;;;;5048569;28;20488;-71
2021/09/27 00:23:51;;;;;;;11.10;5.60;;;16.30;95.00;;;;;;5061150;28;20049;-71
2021/09/27 00:26:18;;;;;;;8.15;5.25;;;16.30;94.90;;;;;;5072203;28;20079;-71
2021/09/27 00:28:45;;;;;;;8.38;4.82;;;16.30;94.90;;;;;;5056406;28;20129;-71
2021/09/27 00:31:13;;;;;;;10.90;5.60;;;16.30;94.90;;;;;;5040703;28;20071;-72
2021/09/27 00:33:40;;;;;;;6.80;4.70;;;16.30;94.90;;;;;;5040303;28;20129;-71
2021/09/27 00:36:07;;;;;;;8.75;5.45;;;16.30;94.90;;;;;;5072941;28;20048;-71
2021/09/27 00:38:34;;;;;;;9.20;5.55;;;16.30;94.90;;;;;;5073074;28;20059;-72
2021/09/27 00:41:04;;;;;;;8.40;5.00;;;16.30;94.90;;;;;;5072791;28;20044;-72
2021/09/27 00:43:32;;;;;;;9.20;4.95;;;16.40;94.90;;;;;;5056091;28;20044;-72
2021/09/27 00:46:06;;;;;;;20.33;13.88;;;16.40;94.90;;;;;;5055481;28;20567;-70
2021/09/27 00:48:33;;;;;;;17.17;12.90;;;16.40;94.90;;;;;;5055903;28;20040;-72
2021/09/27 00:51:02;;;;;;;9.00;5.90;;;16.40;94.80;;;;;;5084504;28;20051;-70
2021/09/27 00:53:37;;;;;;;9.88;5.65;;;16.50;94.80;;;;;;5037522;28;20660;-69
2021/09/27 00:56:04;;;;;;;8.52;4.90;;;16.50;94.80;;;;;;5073985;28;20079;-70
2021/09/27 00:58:32;;;;;;;6.32;4.40;;;16.50;94.80;;;;;;5045155;28;20068;-70
2021/09/27 01:00:59;;;;;;;10.57;4.90;;;16.50;94.70;;;;;;5064362;28;20047;-71
2021/09/27 01:03:26;;;;;;;7.80;5.20;;;16.60;94.70;;;;;;5065700;28;20041;-70
2021/09/27 01:06:05;;;;;;;9.30;4.68;;;16.60;94.70;;;;;;5064851;28;20653;-70
2021/09/27 01:08:35;;;;;;;7.53;4.68;;;16.60;94.60;;;;;;5069842;28;20045;-70
2021/09/27 01:11:21;;;;;;;9.02;5.47;;;16.60;94.60;;;;;;5075953;28;20048;-70
2021/09/27 01:14:08;;;;;;;8.57;4.60;;;16.60;94.50;;;;;;5040895;28;20061;-70
2021/09/27 01:16:45;;;;;;;7.03;4.10;;;16.60;94.40;;;;;;5060860;28;20072;-70
2021/09/27 01:19:12;;;;;;;8.07;4.88;;;16.70;94.40;;;;;;5052592;28;20052;-70
2021/09/27 01:21:42;;;;;;;8.95;4.50;;;16.70;94.40;;;;;;5074664;28;20456;-70
2021/09/27 01:24:57;;;;;;;6.43;3.78;;;16.70;94.30;;;;;;5082754;28;20158;-70
2021/09/27 01:28:04;;;;;;;8.07;4.40;;;16.80;94.20;;;;;;4995746;28;20498;-69
2021/09/27 01:31:04;;;;;;;7.82;4.03;;;16.80;94.20;;;;;;5059867;28;20040;-69
2021/09/27 01:34:02;;;;;;;6.25;3.72;;;16.80;94.20;;;;;;5081522;28;20048;-71
2021/09/27 01:36:51;;;;;;;8.07;4.55;;;16.80;94.10;;;;;;5049941;28;20075;-70
2021/09/27 01:39:35;;;;;;;5.90;3.80;;;16.90;94.20;;;;;;5055949;28;20047;-70
2021/09/27 01:42:11;;;;;;;8.98;3.75;;;16.90;94.10;;;;;;5063972;28;20048;-70
2021/09/27 01:44:55;;;;;;;11.45;4.75;;;16.90;94.10;;;;;;5039662;28;20052;-69
2021/09/27 01:47:29;;;;;;;6.72;3.97;;;16.90;94.10;;;;;;5054535;28;20120;-70
2021/09/27 01:50:16;;;;;;;5.32;3.60;;;16.90;94.10;;;;;;5057348;28;20391;-71
2021/09/27 01:52:52;;;;;;;9.23;4.03;;;16.90;94.10;;;;;;5056816;28;20117;-70
2021/09/27 01:55:41;;;;;;;15.32;5.63;;;16.90;94.10;;;;;;5057494;28;20048;-69
2021/09/27 01:58:16;;;;;;;6.88;4.60;;;16.90;94.10;;;;;;5063028;28;20093;-70
2021/09/27 02:00:50;;;;;;;9.30;4.38;;;16.90;94.20;;;;;;5060724;28;20036;-70
2021/09/27 02:03:24;;;;;;;6.38;4.22;;;16.90;94.10;;;;;;5057003;28;20045;-70
2021/09/27 02:06:31;;;;;;;7.68;4.43;;;16.90;94.10;;;;;;5060029;28;20549;-70
2021/09/27 02:09:03;;;;;;;10.43;5.25;;;16.90;94.10;;;;;;5012318;28;20045;-69
2021/09/27 02:11:32;;;;;;;6.50;3.40;;;16.80;94.10;;;;;;4982750;28;20600;-70
2021/09/27 02:14:08;;;;;;;9.52;4.20;;;16.90;94.20;;;;;;5030530;28;20111;-70
2021/09/27 02:16:42;;;;;;;9.02;3.97;;;16.90;94.20;;;;;;5076464;28;20085;-70
2021/09/27 02:19:14;;;;;;;11.27;4.13;;;16.90;94.20;;;;;;5065806;28;20101;-70
2021/09/27 02:21:44;;;;;;;13.23;4.05;;;16.90;94.10;;;;;;5065868;28;20447;-70
2021/09/27 02:24:18;;;;;;;6.72;3.30;;;16.90;94.10;;;;;;5059319;28;20414;-70
2021/09/27 02:26:47;;;;;;;7.22;3.70;;;16.90;94.10;;;;;;5057054;28;20088;-70
2021/09/27 02:29:14;;;;;;;10.00;3.53;;;16.90;94.10;;;;;;5060801;28;20070;-70
2021/09/27 02:31:49;;;;;;;9.40;3.35;;;16.90;94.00;;;;;;5083473;28;20401;-69
2021/09/27 02:34:42;;;;;;;8.73;3.67;;;17.00;94.10;;;;;;5066233;28;20097;-70
2021/09/27 02:37:10;;;;;;;5.55;3.20;;;17.00;94.00;;;;;;5050267;28;20052;-70
2021/09/27 02:39:44;;;;;;;7.60;3.35;;;17.00;93.90;;;;;;5086740;28;20044;-69
2021/09/27 02:42:17;;;;;;;8.00;3.42;;;17.10;93.90;;;;;;5063739;28;20050;-70
2021/09/27 02:44:45;;;;;;;8.05;4.85;;;17.10;93.60;;;;;;5080388;28;20441;-70
2021/09/27 02:47:14;;;;;;;9.70;3.53;;;17.20;93.50;;;;;;5077366;28;20419;-69
2021/09/27 02:49:44;;;;;;;9.45;3.50;;;17.20;93.50;;;;;;5075292;28;20087;-70
2021/09/27 02:52:13;;;;;;;9.60;3.40;;;17.20;93.40;;;;;;5088390;28;20071;-70
2021/09/27 02:54:53;;;;;;;6.15;3.78;;;17.30;93.40;;;;;;5053046;28;20040;-69
2021/09/27 02:57:53;;;;;;;6.88;2.97;;;17.30;93.30;;;;;;5070157;28;20490;-70
2021/09/27 03:00:36;;;;;;;8.10;3.10;;;17.30;93.20;;;;;;5072385;28;20483;-70
2021/09/27 03:03:24;;;;;;;8.73;3.78;;;17.30;93.10;;;;;;5053112;28;20088;-70
2021/09/27 03:05:55;;;;;;;6.78;3.22;;;17.30;93.20;;;;;;5076898;28;20123;-70
2021/09/27 03:08:45;;;;;;;9.48;3.28;;;17.30;93.20;;;;;;5074930;28;20509;-69
2021/09/27 03:11:24;;;;;;;12.38;3.05;;;17.30;93.30;;;;;;5080669;28;20052;-69
2021/09/27 03:14:00;;;;;;;8.00;2.90;;;17.30;94.00;;;;;;5032636;28;20131;-71
2021/09/27 03:16:32;;;;;;;7.25;3.10;;;17.20;94.50;;;;;;5077279;28;20480;-69
2021/09/27 03:19:26;;;;;;;7.57;3.58;;;17.10;94.70;;;;;;5061867;28;20500;-69
2021/09/27 03:21:57;;;;;;;8.50;2.92;;;17.00;94.80;;;;;;5067420;28;20128;-69
2021/09/27 03:24:27;;;;;;;8.07;3.05;;;16.90;95.10;;;;;;5064512;28;20127;-69
2021/09/27 03:27:01;;;;;;;5.60;3.10;;;16.90;95.00;;;;;;5073941;28;20044;-69
2021/09/27 03:29:38;;;;;;;6.13;2.90;;;16.90;95.00;;;;;;5065934;28;20052;-69
2021/09/27 03:32:25;;;;;;;8.45;2.90;;;16.90;95.10;;;;;;5079289;28;20067;-69
2021/09/27 03:35:14;;;;;;;8.95;3.25;;;16.90;95.00;;;;;;5049571;28;20151;-69
2021/09/27 03:37:43;;;;;;;11.30;3.63;;;16.90;95.00;;;;;;5085076;28;20135;-69
2021/09/27 03:40:41;;;;;;;10.40;3.03;;;16.90;95.10;;;;;;5075550;28;20048;-68
2021/09/27 03:43:13;;;;;;;7.50;2.90;;;16.90;94.90;;;;;;5070513;28;20075;-69
2021/09/27 03:45:58;;;;;;;8.18;3.22;;;17.00;95.00;;;;;;5072619;28;20127;-69
2021/09/27 03:48:46;;;;;;;8.63;3.88;;;17.00;94.90;;;;;;5089592;28;20468;-70
2021/09/27 03:51:24;;;;;;;5.50;2.92;;;17.00;94.90;;;;;;5071077;28;20144;-70
2021/09/27 03:53:55;;;;;;;12.30;3.72;;;17.00;94.70;;;;;;5062627;28;20495;-69
2021/09/27 03:56:40;;;;;;;10.02;3.53;;;17.10;94.70;;;;;;5066970;28;20151;-69
2021/09/27 03:59:26;;;;;;;8.68;3.20;;;17.10;94.60;;;;;;5065710;28;20055;-70
2021/09/27 04:02:15;;;;;;;8.77;2.65;;;17.10;94.50;;;;;;5065275;28;20051;-70
2021/09/27 04:04:55;;;;;;;8.68;4.10;;;17.10;94.60;;;;;;5066571;28;20044;-70
2021/09/27 04:07:53;;;;;;;11.18;4.10;;;17.10;94.90;;;;;;5065187;28;20044;-69
2021/09/27 04:10:44;;;;;;;10.35;3.35;;;17.10;94.70;;;;;;5082362;28;20120;-69
2021/09/27 04:13:26;;;;;;;8.55;3.60;;;17.10;94.70;;;;;;5041100;28;20487;-69
2021/09/27 04:16:15;;;;;;;7.57;3.25;;;17.10;94.50;;;;;;5069424;28;20104;-69
2021/09/27 04:19:12;;;;;;;8.68;3.67;;;17.10;94.50;;;;;;5071714;28;20049;-69
2021/09/27 04:21:54;;;;;;;6.82;3.45;;;17.10;94.40;;;;;;5045557;28;20079;-69
2021/09/27 04:24:49;;;;;;;10.63;2.88;;;17.10;94.30;;;;;;5089286;28;20040;-69
2021/09/27 04:27:27;;;;;;;7.65;3.28;;;17.10;93.90;;;;;;5084527;28;20117;-70
2021/09/27 04:30:22;;;;;;;8.98;3.20;;;17.10;94.10;;;;;;5047800;28;20464;-70
2021/09/27 04:33:03;;;;;;;10.07;3.20;;;17.10;93.80;;;;;;5055146;28;20053;-69
2021/09/27 04:35:35;;;;;;;9.43;2.88;;;17.10;93.80;;;;;;5069032;28;20071;-70
2021/09/27 04:38:06;;;;;;;10.07;3.13;;;17.10;93.80;;;;;;5090868;28;20296;-69
2021/09/27 04:40:39;;;;;;;7.85;3.60;;;17.10;93.80;;;;;;5066841;28;20075;-69
2021/09/27 04:43:43;;;;;;;14.85;3.42;;;17.10;93.80;;;;;;5086200;28;20147;-68
2021/09/27 04:46:37;;;;;;;10.38;3.15;;;17.10;93.70;;;;;;5079086;28;20053;-70
2021/09/27 04:49:18;;;;;;;7.70;2.92;;;17.10;93.70;;;;;;5051285;28;20056;-71
2021/09/27 04:51:50;;;;;;;;;;;17.10;93.70;;;;;;5064835;28;20092;-69
2021/09/27 04:54:25;;;;;;;8.52;2.70;;;17.10;93.60;;;;;;5067337;28;19952;-69
2021/09/27 04:57:29;;;;;;;9.77;3.33;;;17.10;93.60;;;;;;5060761;28;20473;-69
2021/09/27 05:00:14;;;;;;;7.35;2.65;;;17.10;93.60;;;;;;5056634;28;20072;-69
2021/09/27 05:02:50;;;;;;;8.30;2.67;;;17.10;93.60;;;;;;5064240;28;20080;-69
2021/09/27 05:05:41;;;;;;;6.78;3.00;;;17.10;93.70;;;;;;5062437;28;20061;-68
2021/09/27 05:08:23;;;;;;;7.20;3.10;;;17.10;93.60;;;;;;5035907;28;20053;-70
2021/09/27 05:11:00;;;;;;;9.85;3.80;;;17.10;93.60;;;;;;5054913;28;20436;-69
2021/09/27 05:13:46;;;;;;;10.70;3.47;;;17.10;93.60;;;;;;5066392;28;20078;-70
2021/09/27 05:16:31;;;;;;;7.88;2.67;;;17.20;93.60;;;;;;5066346;28;20059;-70
2021/09/27 05:19:34;;;;;;;18.65;4.05;;;17.20;93.90;;;;;;5065432;28;20123;-69
2021/09/27 05:22:10;;;;;;;12.00;3.83;;;17.20;93.50;;;;;;5052481;28;20196;-69
2021/09/27 05:24:44;;;;;;;12.35;2.80;;;17.20;93.50;;;;;;5065057;28;20049;-69
2021/09/27 05:27:36;;;;;;;11.25;3.70;;;17.20;93.50;;;;;;5056912;28;20045;-70
2021/09/27 05:30:18;;;;;;;5.75;2.70;;;17.10;93.60;;;;;;5061549;28;20057;-69
2021/09/27 05:33:03;;;;;;;12.65;3.65;;;17.20;93.60;;;;;;5060665;28;20480;-69
2021/09/27 05:35:59;;;;;;;13.75;3.58;;;17.20;93.60;;;;;;5066010;28;20099;-69
2021/09/27 05:38:29;;;;;;;11.30;3.50;;;17.20;93.80;;;;;;5053390;28;20786;-70
2021/09/27 05:41:15;;;;;;;8.27;2.95;;;17.20;94.40;;;;;;5043363;28;20071;-70
2021/09/27 05:44:08;;;;;;;14.57;6.07;;;17.10;95.00;;;;;;5052376;28;20095;-69
2021/09/27 05:46:49;;;;;;;9.82;3.13;;;17.00;95.30;;;;;;5047184;28;20047;-70
2021/09/27 05:49:19;;;;;;;14.32;3.72;;;16.90;95.70;;;;;;5068259;28;20059;-74
2021/09/27 05:51:57;;;;;;;11.02;4.20;;;16.80;96.00;;;;;;5054239;28;20076;-69
2021/09/27 05:54:56;;;;;;;12.63;3.17;;;16.80;96.50;;;;;;5052027;28;20076;-66
2021/09/27 05:57:31;;;;;;;11.85;3.80;;;16.70;96.70;;;;;;5044080;28;20056;-67
2021/09/27 06:00:14;;;;;;;13.18;3.60;;;16.70;96.90;;;;;;5050396;28;20063;-68
2021/09/27 06:03:05;;;;;;;12.52;4.60;;;16.70;97.00;;;;;;5050853;28;20072;-68
2021/09/27 06:05:38;;;;;;;11.95;4.25;;;16.70;97.10;;;;;;5049668;28;20123;-70
2021/09/27 06:08:48;;;;;;;16.65;6.57;;;16.60;97.30;;;;;;5061564;28;20159;-69
2021/09/27 06:11:32;;;;;;;8.70;3.40;;;16.60;97.60;;;;;;5040666;28;20112;-69
2021/09/27 06:13:59;;;;;;;11.63;3.45;;;16.60;97.60;;;;;;5047519;28;20112;-70
2021/09/27 06:17:18;;;;;;;14.02;4.30;;;16.60;97.50;;;;;;5060745;28;20083;-69
2021/09/27 06:20:02;;;;;;;14.35;3.88;;;16.60;98.10;;;;;;4985918;28;20173;-70
2021/09/27 06:22:53;;;;;;;8.95;3.47;;;16.60;97.90;;;;;;4970200;28;20129;-66
2021/09/27 06:25:49;;;;;;;12.90;5.57;;;16.60;98.20;;;;;;5027603;28;20083;-67
2021/09/27 06:28:26;;;;;;;13.02;3.33;;;16.50;98.10;;;;;;5039055;28;20048;-65
2021/09/27 06:31:00;;;;;;;15.73;9.45;;;16.50;98.30;;;;;;5063160;28;20085;-71
2021/09/27 06:33:30;;;;;;;9.18;4.20;;;16.50;98.40;;;;;;5046869;28;20056;-72
2021/09/27 06:35:58;;;;;;;12.50;3.60;;;16.50;98.00;;;;;;5031188;28;20052;-71
2021/09/27 06:38:30;;;;;;;11.75;4.40;;;16.40;98.40;;;;;;5035236;28;20421;-71
2021/09/27 06:40:57;;;;;;;15.82;3.88;;;16.40;98.60;;;;;;5030877;28;20057;-72
2021/09/27 06:43:26;;;;;;;8.68;3.35;;;16.40;98.70;;;;;;5045747;28;20052;-73
2021/09/27 06:45:56;;;;;;;6.68;3.10;;;16.30;99.10;;;;;;5046705;28;20442;-70
2021/09/27 06:48:24;;;;;;;25.50;18.85;;;16.30;98.90;;;;;;5040744;28;20053;-70
2021/09/27 06:50:52;;;;;;;9.77;3.30;;;16.40;99.10;;;;;;5050506;28;20095;-72
2021/09/27 06:53:21;;;;;;;6.38;2.47;;;16.30;99.20;;;;;;5044524;28;20084;-71
2021/09/27 06:55:50;;;;;;;5.05;2.40;;;16.40;99.00;;;;;;5048314;28;20037;-72
2021/09/27 06:58:17;;;;;;;4.88;1.95;;;16.40;99.10;;;;;;5046205;28;20053;-72
2021/09/27 07:00:44;;;;;;;8.32;2.63;;;16.40;99.20;;;;;;5047001;28;20051;-73
2021/09/27 07:03:19;;;;;;;7.70;2.30;;;16.40;99.40;;;;;;5044701;28;20049;-66
2021/09/27 07:05:46;;;;;;;6.25;2.20;;;16.40;99.40;;;;;;5046405;28;20428;-65
2021/09/27 07:08:14;;;;;;;3.92;1.92;;;16.40;99.40;;;;;;5046028;28;20463;-69
2021/09/27 07:10:43;;;;;;;5.82;1.83;;;16.40;99.30;;;;;;5045174;28;20132;-70
2021/09/27 07:13:11;;;;;;;4.07;2.03;;;16.40;99.50;;;;;;5046301;28;20056;-68
2021/09/27 07:15:39;;;;;;;4.50;1.80;;;16.40;99.40;;;;;;5028503;28;20091;-69
2021/09/27 07:18:08;;;;;;;5.30;2.47;;;16.40;99.10;;;;;;5046832;28;20057;-71
2021/09/27 07:20:38;;;;;;;6.38;1.92;;;16.40;99.00;;;;;;5044930;28;20133;-68
2021/09/27 07:23:05;;;;;;;6.60;2.67;;;16.50;99.20;;;;;;5046612;28;20124;-72
2021/09/27 07:25:32;;;;;;;4.22;1.92;;;16.60;98.70;;;;;;5045441;28;20057;-68
2021/09/27 07:28:00;;;;;;;7.55;2.47;;;16.60;99.30;;;;;;5013049;28;20207;-67
2021/09/27 07:30:27;;;;;;;8.90;2.83;;;16.50;98.70;;;;;;5046200;28;20101;-67
2021/09/27 07:32:54;;;;;;;8.07;2.78;;;16.60;99.00;;;;;;5013513;28;20099;-67
2021/09/27 07:35:23;;;;;;;7.05;2.30;;;16.60;99.10;;;;;;5045456;28;20056;-66
2021/09/27 07:37:50;;;;;;;6.28;2.17;;;16.50;99.10;;;;;;5046016;28;20136;-67
2021/09/27 07:40:20;;;;;;;9.13;3.13;;;16.50;99.50;;;;;;5048254;28;20493;-67
2021/09/27 07:42:48;;;;;;;14.20;10.93;;;16.50;99.20;;;;;;5044853;28;20058;-70
2021/09/27 07:45:16;;;;;;;3.65;1.70;;;16.50;99.20;;;;;;5047184;28;20555;-67
2021/09/27 07:47:43;;;;;;;6.82;1.77;;;16.50;99.20;;;;;;5045934;28;20506;-66
2021/09/27 07:50:11;;;;;;;4.70;2.10;;;16.50;99.20;;;;;;5046706;28;20139;-66
2021/09/27 07:52:41;;;;;;;8.60;2.70;;;16.50;99.10;;;;;;5049430;28;20089;-65
2021/09/27 07:55:08;;;;;;;7.50;1.70;;;16.50;99.40;;;;;;5066769;28;20171;-67
2021/09/27 07:57:35;;;;;;;3.08;1.65;;;16.50;99.20;;;;;;5052625;28;20075;-66
2021/09/27 08:00:04;;;;;;;3.17;1.70;;;16.50;99.30;;;;;;5069824;28;20052;-67
2021/09/27 08:02:32;;;;;;;;;;;16.60;99.30;;;;;;5069138;28;20063;-67
2021/09/27 08:04:59;;;;;;;3.65;1.70;;;16.60;99.40;;;;;;5069292;28;19979;-66
2021/09/27 08:07:26;;;;;;;3.63;2.05;;;16.50;99.30;;;;;;5069166;28;20087;-68
2021/09/27 08:09:54;;;;;;;5.85;2.53;;;16.50;99.10;;;;;;5051580;28;20052;-66
2021/09/27 08:12:21;;;;;;;6.85;2.40;;;16.60;99.10;;;;;;5051405;28;20053;-68
2021/09/27 08:14:48;;;;;;;9.45;3.13;;;16.60;98.70;;;;;;5066755;28;20055;-66
2021/09/27 08:17:15;;;;;;;7.35;2.63;;;16.70;98.50;;;;;;5069613;28;20103;-66
2021/09/27 08:19:45;;;;;;;10.93;3.88;;;16.70;97.90;;;;;;5069990;28;20499;-66
2021/09/27 08:22:12;;;;;;;5.80;3.00;;;16.80;97.90;;;;;;5033120;28;20523;-66
2021/09/27 08:24:39;;;;;;;7.82;2.90;;;16.80;98.40;;;;;;5053472;28;20040;-65
2021/09/27 08:27:08;;;;;;;7.15;2.33;;;16.80;98.60;;;;;;5057456;28;20087;-66
2021/09/27 08:29:35;;;;;;;3.50;1.23;;;16.60;94.70;;;;;;5075372;28;20483;-66
2021/09/27 08:32:02;;;;;;;89.22;78.88;;;16.10;94.40;;;;;;5058544;28;20510;-66
2021/09/27 08:34:29;;;;;;;6.85;4.50;;;15.80;94.80;;;;;;5063814;28;20123;-66
2021/09/27 08:36:58;;;;;;;5.03;1.58;;;15.50;94.80;;;;;;5066593;28;20076;-66
2021/09/27 08:39:25;;;;;;;3.88;1.10;;;15.30;95.40;;;;;;5059505;28;20045;-65
2021/09/27 08:42:09;;;;;;;5.80;1.25;;;15.20;96.80;;;;;;5045522;28;20127;-67
2021/09/27 08:44:46;;;;;;;5.72;2.72;;;15.50;95.50;;;;;;5064546;28;20040;-65
2021/09/27 08:47:40;;;;;;;1.67;0.88;;;15.30;95.40;;;;;;5053019;28;20143;-67
2021/09/27 08:50:17;;;;;;;2.25;0.85;;;15.20;95.40;;;;;;5054586;28;20092;-69
2021/09/27 08:52:45;;;;;;;2.95;0.93;;;15.10;96.50;;;;;;5071940;28;20082;-66
2021/09/27 08:55:14;;;;;;;2.00;0.93;;;15.10;95.40;;;;;;5051841;28;20047;-68
2021/09/27 08:58:32;;;;;;;4.53;1.15;;;15.00;95.50;;;;;;5067436;28;20055;-66
2021/09/27 09:01:02;;;;;;;6.15;0.95;;;15.00;95.90;;;;;;5021835;28;20065;-65
2021/09/27 09:03:34;;;;;;;3.67;1.00;;;15.00;95.40;;;;;;5058544;28;20070;-67
2021/09/27 09:06:12;;;;;;;2.97;0.80;;;15.10;94.60;;;;;;5040425;28;20048;-66
2021/09/27 09:08:44;;;;;;;2.58;0.80;;;15.20;95.10;;;;;;5062760;28;20041;-67
2021/09/27 09:11:36;;;;;;;1.20;0.73;;;15.10;94.40;;;;;;5067063;28;20059;-65
2021/09/27 09:14:28;;;;;;;1.48;0.63;;;15.10;93.60;;;;;;5081734;28;20086;-66
2021/09/27 09:16:55;;;;;;;1.58;1.10;;;14.90;93.00;;;;;;5066124;28;20503;-65
2021/09/27 09:19:24;;;;;;;2.78;0.80;;;14.80;93.50;;;;;;5046852;28;20071;-65
2021/09/27 09:21:53;;;;;;;1.33;0.80;;;14.70;93.10;;;;;;5059459;28;20073;-67
2021/09/27 09:24:43;;;;;;;2.38;0.90;;;14.60;94.10;;;;;;5065010;28;20054;-65
2021/09/27 09:27:11;;;;;;;1.48;0.73;;;14.50;93.00;;;;;;5072286;28;20052;-67
2021/09/27 09:29:41;;;;;;;1.10;0.80;;;14.50;93.80;;;;;;5086132;28;20131;-68
2021/09/27 09:32:13;;;;;;;;;;;14.40;92.90;;;;;;5059057;28;20060;-65
2021/09/27 09:34:40;;;;;;;2.08;0.95;;;14.40;92.30;;;;;;5082446;28;19926;-69
2021/09/27 09:37:16;;;;;;;2.80;0.90;;;14.40;93.80;;;;;;5069538;28;20075;-68
2021/09/27 09:39:55;;;;;;;0.98;0.80;;;14.30;92.30;;;;;;5063605;28;20505;-66
2021/09/27 09:42:23;;;;;;;2.08;1.00;;;14.40;93.20;;;;;;5070608;28;20048;-67
2021/09/27 09:44:55;;;;;;;2.60;0.82;;;14.50;92.30;;;;;;5076804;28;20484;-69
2021/09/27 09:47:25;;;;;;;3.72;1.00;;;14.50;92.70;;;;;;5070555;28;20160;-67
2021/09/27 09:50:27;;;;;;;1.38;0.80;;;14.50;92.70;;;;;;5069012;28;20086;-67
2021/09/27 09:52:56;;;;;;;2.88;1.10;;;14.60;91.90;;;;;;5041335;28;20052;-69
2021/09/27 09:55:39;;;;;;;2.33;0.70;;;14.60;92.00;;;;;;5067063;28;20051;-67
2021/09/27 09:58:28;;;;;;;1.00;0.70;;;14.70;91.20;;;;;;5054912;28;20051;-66
2021/09/27 10:00:57;;;;;;;1.05;0.70;;;14.60;90.40;;;;;;5040923;28;20127;-69
2021/09/27 10:03:38;;;;;;;2.63;0.75;;;14.60;90.00;;;;;;5061360;28;20096;-67
2021/09/27 10:06:37;;;;;;;3.15;2.03;;;14.70;90.90;;;;;;5073611;28;20075;-66
2021/09/27 10:09:07;;;;;;;1.60;1.50;;;14.80;91.60;;;;;;5075482;28;20052;-66
2021/09/27 10:12:04;;;;;;;1.90;0.80;;;14.90;91.60;;;;;;5067508;28;20044;-68
2021/09/27 10:14:31;;;;;;;1.75;0.80;;;15.00;90.80;;;;;;5064083;28;20066;-66
2021/09/27 10:17:27;;;;;;;1.63;1.00;;;15.00;87.20;;;;;;5090571;28;20134;-68
2021/09/27 10:20:17;;;;;;;0.75;0.60;;;15.00;87.90;;;;;;5072076;28;20150;-66
2021/09/27 10:22:55;;;;;;;2.95;0.95;;;15.00;87.80;;;;;;5088543;28;20455;-69
2021/09/27 10:25:23;;;;;;;0.90;0.60;;;15.00;86.70;;;;;;5067150;28;20180;-71
2021/09/27 10:27:51;;;;;;;2.97;0.75;;;15.00;86.00;;;;;;5073935;28;20056;-69
2021/09/27 10:30:22;;;;;;;1.30;0.93;;;15.00;85.00;;;;;;5054558;28;20097;-67
2021/09/27 10:32:57;;;;;;;3.13;0.80;;;15.00;86.90;;;;;;5044548;28;20139;-71
2021/09/27 10:35:24;;;;;;;5.18;1.17;;;15.00;86.10;;;;;;5032020;28;20491;-71
2021/09/27 10:37:58;;;;;;;0.95;0.60;;;15.10;85.70;;;;;;5033064;28;20124;-70
2021/09/27 10:40:25;;;;;;;1.35;0.90;;;15.00;84.40;;;;;;5073049;28;20547;-69
2021/09/27 10:42:54;;;;;;;1.13;0.60;;;15.00;83.20;;;;;;5063523;28;20091;-71
2021/09/27 10:45:22;;;;;;;1.33;0.70;;;15.00;80.20;;;;;;5055519;28;20130;-72
2021/09/27 10:47:54;;;;;;;2.40;1.05;;;15.10;82.90;;;;;;5054941;28;20135;-65
2021/09/27 10:50:44;;;;;;;18.10;13.50;;;15.10;82.20;;;;;;5054188;28;20552;-65
2021/09/27 10:53:32;;;;;;;1.92;0.98;;;15.20;82.30;;;;;;5044714;28;20052;-66
2021/09/27 10:56:18;;;;;;;2.27;0.80;;;15.30;79.50;;;;;;5072125;28;20055;-71
2021/09/27 10:58:51;;;;;;;3.05;0.77;;;15.40;78.70;;;;;;5072333;28;20338;-67
2021/09/27 11:01:48;;;;;;;2.35;0.88;;;15.50;79.70;;;;;;5061194;28;20576;-65
2021/09/27 11:04:30;;;;;;;2.13;1.00;;;15.60;78.80;;;;;;5039072;28;20056;-66
2021/09/27 11:06:58;;;;;;;1.27;0.80;;;15.70;78.60;;;;;;5051093;28;20559;-67
2021/09/27 11:09:36;;;;;;;1.48;0.88;;;15.70;75.80;;;;;;5071002;28;20056;-76
2021/09/27 11:12:15;;;;;;;1.15;0.82;;;15.70;74.40;;;;;;5058591;28;20084;-71
2021/09/27 11:14:51;;;;;;;3.13;1.17;;;15.70;73.90;;;;;;5052861;28;20056;-70
2021/09/27 11:17:33;;;;;;;0.90;0.70;;;15.70;76.40;;;;;;5052237;28;20094;-71
2021/09/27 11:20:15;;;;;;;3.33;1.15;;;15.60;75.30;;;;;;5049946;28;20049;-65
2021/09/27 11:23:05;;;;;;;3.13;1.30;;;15.60;75.50;;;;;;5043756;28;20052;-66
2021/09/27 11:25:37;;;;;;;3.10;1.48;;;15.50;75.20;;;;;;5076236;28;20048;-64
2021/09/27 11:28:07;;;;;;;2.28;0.93;;;15.50;77.00;;;;;;5066922;28;20072;-64
2021/09/27 11:30:45;;;;;;;4.00;1.00;;;15.50;75.40;;;;;;5088718;28;20167;-63
2021/09/27 11:33:31;;;;;;;2.30;0.82;;;15.50;77.20;;;;;;5062926;28;20055;-65
2021/09/27 11:36:26;;;;;;;3.75;1.23;;;15.60;73.40;;;;;;5085695;28;20175;-64
2021/09/27 11:39:05;;;;;;;3.38;1.20;;;15.70;76.50;;;;;;5016251;28;20051;-66
2021/09/27 11:41:33;;;;;;;1.75;0.93;;;15.90;74.50;;;;;;5073888;28;20060;-64
2021/09/27 11:44:12;;;;;;;2.60;0.98;;;16.00;73.60;;;;;;5072627;28;20057;-69
2021/09/27 11:46:43;;;;;;;;;;;16.10;73.50;;;;;;5073915;28;20053;-66
2021/09/27 11:49:21;;;;;;;24.42;20.55;;;16.20;72.80;;;;;;5075089;28;19924;-67
2021/09/27 11:52:15;;;;;;;18.33;10.63;;;16.30;72.40;;;;;;5076623;28;20119;-65
2021/09/27 11:55:04;;;;;;;6.30;3.80;;;16.50;71.90;;;;;;5068833;28;20394;-66
2021/09/27 11:58:15;;;;;;;3.90;1.55;;;16.40;73.20;;;;;;5047266;28;20044;-65
2021/09/27 12:00:47;;;;;;;3.80;1.10;;;16.20;72.70;;;;;;5054158;28;20116;-67
2021/09/27 12:03:39;;;;;;;4.82;1.10;;;16.20;74.00;;;;;;5056506;28;20056;-66
2021/09/27 12:06:18;;;;;;;3.38;1.20;;;16.20;75.00;;;;;;5062571;28;20043;-67
2021/09/27 12:09:07;;;;;;;3.13;0.98;;;16.20;75.60;;;;;;5046104;28;20083;-64
2021/09/27 12:11:36;;;;;;;4.27;1.10;;;16.20;76.00;;;;;;5052393;28;20044;-66
2021/09/27 12:14:03;;;;;;;4.15;1.60;;;16.10;72.20;;;;;;5059652;28;20048;-68
2021/09/27 12:16:38;;;;;;;5.03;1.05;;;16.10;72.90;;;;;;5059819;28;20062;-70
2021/09/27 12:19:26;;;;;;;2.17;1.17;;;16.20;74.90;;;;;;5036541;28;20049;-69
2021/09/27 12:22:03;;;;;;;4.55;1.13;;;16.30;72.40;;;;;;5055721;28;20482;-69
2021/09/27 12:24:41;;;;;;;3.83;1.17;;;16.40;73.20;;;;;;5068481;28;20416;-63
2021/09/27 12:27:19;;;;;;;7.10;1.13;;;16.50;73.70;;;;;;5058942;28;20072;-70
2021/09/27 12:30:11;;;;;;;4.35;1.80;;;16.50;73.90;;;;;;5071074;28;20059;-66
2021/09/27 12:32:39;;;;;;;3.88;1.02;;;16.60;71.90;;;;;;5064243;28;20040;-66
2021/09/27 12:35:11;;;;;;;1.80;0.82;;;16.80;71.70;;;;;;5077653;28;20100;-65
2021/09/27 12:37:40;;;;;;;5.25;1.20;;;16.80;70.60;;;;;;5069953;28;20183;-64
2021/09/27 12:40:10;;;;;;;4.83;1.10;;;16.90;70.80;;;;;;5066047;28;20429;-66
2021/09/27 12:43:05;;;;;;;2.25;1.15;;;17.00;71.40;;;;;;5055399;28;20076;-66
2021/09/27 12:45:33;;;;;;;3.00;1.08;;;17.10;71.00;;;;;;5049082;28;20052;-70
2021/09/27 12:48:06;;;;;;;1.83;0.88;;;17.00;71.00;;;;;;5072867;28;20452;-69
2021/09/27 12:50:34;;;;;;;3.28;0.93;;;16.90;69.70;;;;;;5071427;28;20051;-65
2021/09/27 12:53:06;;;;;;;2.10;0.90;;;16.80;71.30;;;;;;5083356;28;20063;-64
2021/09/27 12:55:40;;;;;;;2.42;1.08;;;16.70;69.80;;;;;;5051620;28;20067;-66
2021/09/27 12:58:25;;;;;;;4.85;1.40;;;16.60;71.70;;;;;;5045412;28;20067;-65
2021/09/27 13:00:52;;;;;;;2.15;1.20;;;16.60;71.30;;;;;;5068247;28;20528;-64
2021/09/27 13:03:24;;;;;;;2.35;1.05;;;16.60;70.70;;;;;;5079255;28;20849;-64
2021/09/27 13:06:10;;;;;;;4.22;1.02;;;16.50;72.10;;;;;;5057033;28;20036;-66
2021/09/27 13:08:40;;;;;;;7.68;4.63;;;16.70;72.60;;;;;;5075976;28;20528;-65
2021/09/27 13:11:26;;;;;;;12.32;9.38;;;16.70;72.00;;;;;;5070555;28;20058;-65
2021/09/27 13:13:58;;;;;;;2.97;1.02;;;16.70;70.50;;;;;;5071003;28;20055;-65
2021/09/27 13:16:27;;;;;;;2.28;1.08;;;16.70;71.40;;;;;;5065685;28;20048;-64
2021/09/27 13:18:54;;;;;;;3.70;1.00;;;16.80;72.40;;;;;;5052100;28;20044;-64
2021/09/27 13:21:30;;;;;;;4.18;0.90;;;16.80;71.40;;;;;;5069317;28;20045;-64
2021/09/27 13:24:04;;;;;;;1.92;0.90;;;16.90;67.30;;;;;;5069074;28;20044;-64
2021/09/27 13:27:01;;;;;;;1.88;1.10;;;17.00;66.90;;;;;;5052293;28;20044;-64
2021/09/27 13:29:40;;;;;;;3.58;0.77;;;17.00;65.50;;;;;;5051590;28;20087;-64
2021/09/27 13:32:10;;;;;;;;;;;17.00;65.90;;;;;;5051805;28;20052;-64
2021/09/27 13:34:44;;;;;;;4.05;1.63;;;17.00;67.30;;;;;;5069181;28;19920;-65
2021/09/27 13:37:22;;;;;;;4.32;1.33;;;17.00;68.90;;;;;;5035539;28;20088;-64